Station Historical Data
 
Daily Summary for February 24, 2018 Units:  English    Metric   Both
« Previous Day
Next Day »
Daily Weekly Monthly Yearly Custom
  Current: High: Low: Average:
Temperature: 37.9 °F TemperatureF °F 37.3 °F 38.6 °F
Dew Point: 30.4 °F DewpointF °F 30.1 °F 33.7 °F
Humidity: 74% Humidity% 71% 82%
Wind Speed: 6.0mph WindSpeedMPHmph 0.0mph 3.3mph
Wind Gust: 11.0mph WindSpeedGustMPHmph - -
WindNE - - SSW
Pressure: 30.17 in PressureIn in 30.16 in -
Precipitation: 0.00 in      
Historical Graphs
 
 
Tabular Data for February 24, 2018
Time Temperature Dew Point Pressure Wind Wind Speed Wind Gust Humidity Rainfall Rate (Hourly)
TemperatureF °F DewpointF °F PressureIn in Calm     Humidity% HourlyPrecipIn in
00:04 39.1 °F 37.0 °F 30.16 in SW 4.0 mph 9.0 mph 92% 0.00 in
00:09 39.0 °F 37.1 °F 30.17 in WSW 3.0 mph 11.0 mph 93% 0.00 in
00:14 38.9 °F 37.0 °F 30.17 in WSW 5.0 mph 11.0 mph 93% 0.00 in
00:19 38.9 °F 37.0 °F 30.17 in WSW 5.0 mph 11.0 mph 93% 0.00 in
00:24 38.8 °F 36.9 °F 30.18 in WSW 5.0 mph 7.0 mph 93% 0.00 in
00:29 38.8 °F 36.7 °F 30.18 in SW 3.0 mph 12.0 mph 92% 0.00 in
00:34 38.6 °F 36.5 °F 30.17 in WSW 9.0 mph 11.0 mph 92% 0.00 in
00:39 38.6 °F 36.8 °F 30.18 in WSW 5.0 mph 11.0 mph 93% 0.00 in
00:44 38.5 °F 36.7 °F 30.17 in WSW 4.0 mph 11.0 mph 93% 0.00 in
00:49 38.6 °F 36.8 °F 30.18 in WSW 4.0 mph 9.0 mph 93% 0.00 in
00:54 38.6 °F 36.8 °F 30.18 in SSW 5.0 mph 7.0 mph 93% 0.00 in
00:59 38.6 °F 36.8 °F 30.18 in WSW 4.0 mph 7.0 mph 93% 0.00 in
01:04 38.7 °F 36.9 °F 30.18 in West 1.0 mph 6.0 mph 93% 0.00 in
01:09 38.7 °F 36.9 °F 30.19 in WSW 2.0 mph 6.0 mph 93% 0.00 in
01:14 38.7 °F 36.9 °F 30.19 in WSW 3.0 mph 6.0 mph 93% 0.00 in
01:19 38.7 °F 36.9 °F 30.19 in WSW 3.0 mph 6.0 mph 93% 0.00 in
01:24 38.8 °F 36.9 °F 30.19 in WSW 2.0 mph 6.0 mph 93% 0.00 in
01:29 38.8 °F 36.9 °F 30.19 in WSW 2.0 mph 6.0 mph 93% 0.00 in
01:34 38.8 °F 36.9 °F 30.19 in WSW 2.0 mph 5.0 mph 93% 0.00 in
01:39 38.9 °F 37.0 °F 30.19 in SW 3.0 mph 5.0 mph 93% 0.00 in
01:44 38.9 °F 37.0 °F 30.19 in SW 2.0 mph 5.0 mph 93% 0.00 in
01:49 38.9 °F 37.0 °F 30.19 in SW 2.0 mph 4.0 mph 93% 0.00 in
01:54 39.0 °F 37.1 °F 30.19 in SW 2.0 mph 3.0 mph 93% 0.00 in
01:59 39.0 °F 37.1 °F 30.19 in Calm   4.0 mph 93% 0.00 in
02:04 39.0 °F 37.1 °F 30.19 in SW 1.0 mph 4.0 mph 93% 0.00 in
02:09 39.1 °F 37.2 °F 30.19 in NW 4.0 mph 5.0 mph 93% 0.00 in
02:14 39.3 °F 37.4 °F 30.19 in WSW 2.0 mph 8.0 mph 93% 0.00 in
02:19 39.6 °F 37.7 °F 30.19 in West 3.0 mph 8.0 mph 93% 0.00 in
02:24 39.9 °F 38.0 °F 30.19 in WSW 2.0 mph 6.0 mph 93% 0.00 in
02:29 40.1 °F 38.2 °F 30.19 in WSW 6.0 mph 10.0 mph 93% 0.00 in
02:34 40.2 °F 38.3 °F 30.20 in NW 5.0 mph 9.0 mph 93% 0.00 in
02:39 40.3 °F 38.4 °F 30.19 in West 4.0 mph 8.0 mph 93% 0.00 in
02:44 40.3 °F 38.4 °F 30.20 in WNW 4.0 mph 9.0 mph 93% 0.00 in
02:49 40.4 °F 38.5 °F 30.20 in WNW 4.0 mph 9.0 mph 93% 0.00 in
02:54 40.4 °F 38.5 °F 30.20 in WNW 4.0 mph 9.0 mph 93% 0.00 in
02:59 40.4 °F 38.5 °F 30.19 in WNW 5.0 mph 8.0 mph 93% 0.00 in
03:04 40.3 °F 38.4 °F 30.19 in NW 7.0 mph 9.0 mph 93% 0.00 in
03:09 40.2 °F 38.3 °F 30.20 in WNW 3.0 mph 8.0 mph 93% 0.00 in
03:14 40.0 °F 38.1 °F 30.21 in NW 4.0 mph 9.0 mph 93% 0.00 in
03:19 39.8 °F 37.9 °F 30.20 in WNW 4.0 mph 9.0 mph 93% 0.00 in
03:24 39.6 °F 37.7 °F 30.22 in WNW 4.0 mph 9.0 mph 93% 0.00 in
03:29 39.4 °F 37.5 °F 30.21 in North 2.0 mph 9.0 mph 93% 0.00 in
03:34 39.3 °F 37.4 °F 30.21 in NW 7.0 mph 10.0 mph 93% 0.00 in
03:39 39.1 °F 37.2 °F 30.21 in NW 5.0 mph 14.0 mph 93% 0.00 in
03:44 38.9 °F 37.0 °F 30.21 in NW 5.0 mph 14.0 mph 93% 0.00 in
03:49 38.9 °F 37.0 °F 30.22 in NW 6.0 mph 10.0 mph 93% 0.00 in
04:00 38.8 °F 36.9 °F 30.22 in WNW 4.0 mph 10.0 mph 93% 0.00 in
04:09 38.8 °F 36.9 °F 30.23 in WNW 4.0 mph 8.0 mph 93% 0.00 in
04:10 38.8 °F 36.9 °F 30.23 in WNW 5.0 mph 8.0 mph 93% 0.00 in
04:19 38.8 °F 36.9 °F 30.23 in WNW 3.0 mph 7.0 mph 93% 0.00 in
04:24 38.8 °F 36.9 °F 30.22 in WNW 3.0 mph 7.0 mph 93% 0.00 in
04:29 38.8 °F 36.9 °F 30.22 in NW 4.0 mph 8.0 mph 93% 0.00 in
04:34 38.8 °F 36.9 °F 30.22 in West 4.0 mph 8.0 mph 93% 0.00 in
04:39 38.8 °F 36.7 °F 30.22 in NNW 4.0 mph 9.0 mph 92% 0.00 in
04:44 38.8 °F 36.7 °F 30.22 in NW 4.0 mph 9.0 mph 92% 0.00 in
04:49 38.8 °F 36.7 °F 30.22 in NW 3.0 mph 8.0 mph 92% 0.00 in
04:54 38.7 °F 36.6 °F 30.22 in NW 1.0 mph 5.0 mph 92% 0.00 in
04:59 38.8 °F 36.7 °F 30.21 in NW 3.0 mph 3.0 mph 92% 0.00 in
05:04 38.8 °F 36.7 °F 30.20 in WNW 5.0 mph 6.0 mph 92% 0.00 in
05:09 38.7 °F 36.6 °F 30.20 in NW 3.0 mph 6.0 mph 92% 0.00 in
05:14 38.6 °F 36.5 °F 30.21 in NNW 4.0 mph 9.0 mph 92% 0.00 in
05:19 38.5 °F 36.4 °F 30.22 in NNW 4.0 mph 9.0 mph 92% 0.00 in
05:24 38.5 °F 36.4 °F 30.22 in NNW 3.0 mph 8.0 mph 92% 0.00 in
05:29 38.5 °F 36.4 °F 30.22 in NNW 1.0 mph 6.0 mph 92% 0.00 in
05:34 38.4 °F 36.0 °F 30.22 in WNW 10.0 mph 11.0 mph 91% 0.00 in
05:39 38.3 °F 35.9 °F 30.22 in North 4.0 mph 12.0 mph 91% 0.00 in
05:44 38.2 °F 35.8 °F 30.23 in NW 4.0 mph 12.0 mph 91% 0.00 in
05:49 38.2 °F 35.8 °F 30.23 in NW 3.0 mph 9.0 mph 91% 0.00 in
05:54 38.1 °F 35.4 °F 30.23 in NW 4.0 mph 8.0 mph 90% 0.00 in
05:59 38.1 °F 35.4 °F 30.23 in Calm   7.0 mph 90% 0.00 in
06:04 38.2 °F 35.5 °F 30.23 in NW 2.0 mph 7.0 mph 90% 0.00 in
06:09 38.1 °F 35.4 °F 30.24 in Calm   6.0 mph 90% 0.00 in
06:14 38.1 °F 35.1 °F 30.24 in WNW 2.0 mph 6.0 mph 89% 0.00 in
06:19 38.2 °F 35.2 °F 30.23 in WNW 1.0 mph 4.0 mph 89% 0.00 in
06:24 38.2 °F 35.2 °F 30.23 in West 3.0 mph 5.0 mph 89% 0.00 in
06:29 38.2 °F 35.2 °F 30.24 in NW 4.0 mph 5.0 mph 89% 0.00 in
06:34 38.1 °F 34.9 °F 30.24 in NNW 2.0 mph 5.0 mph 88% 0.00 in
06:39 38.1 °F 34.9 °F 30.24 in NW 4.0 mph 8.0 mph 88% 0.00 in
06:44 38.0 °F 34.5 °F 30.24 in NW 3.0 mph 8.0 mph 87% 0.00 in
06:49 38.0 °F 34.5 °F 30.24 in NW 3.0 mph 8.0 mph 87% 0.00 in
06:54 38.0 °F 34.5 °F 30.24 in NW 3.0 mph 6.0 mph 87% 0.00 in
06:59 38.0 °F 34.2 °F 30.24 in NW 2.0 mph 5.0 mph 86% 0.00 in
07:04 38.0 °F 34.2 °F 30.23 in NW 2.0 mph 5.0 mph 86% 0.00 in
07:09 38.0 °F 34.2 °F 30.23 in Calm   4.0 mph 86% 0.00 in
07:14 38.0 °F 34.2 °F 30.23 in NW 2.0 mph 4.0 mph 86% 0.00 in
07:19 38.0 °F 33.9 °F 30.23 in NW 1.0 mph 4.0 mph 85% 0.00 in
07:24 38.0 °F 33.9 °F 30.23 in NW 1.0 mph 4.0 mph 85% 0.00 in
07:29 38.0 °F 33.9 °F 30.24 in NW 2.0 mph 2.0 mph 85% 0.00 in
07:34 38.0 °F 33.9 °F 30.24 in Calm   4.0 mph 85% 0.00 in
07:39 38.0 °F 33.6 °F 30.24 in NW 2.0 mph 3.0 mph 84% 0.00 in
07:44 38.0 °F 33.6 °F 30.24 in NW 1.0 mph 4.0 mph 84% 0.00 in
07:49 38.1 °F 33.7 °F 30.24 in Calm   2.0 mph 84% 0.00 in
07:54 38.1 °F 33.7 °F 30.24 in Calm   2.0 mph 84% 0.00 in
07:59 38.1 °F 33.7 °F 30.24 in Calm     84% 0.00 in
08:04 38.1 °F 33.7 °F 30.24 in Calm     84% 0.00 in
08:09 38.2 °F 33.8 °F 30.25 in Calm   2.0 mph 84% 0.00 in
08:14 38.2 °F 33.5 °F 30.25 in NW 1.0 mph 4.0 mph 83% 0.00 in
08:19 38.2 °F 33.5 °F 30.25 in NW 2.0 mph 3.0 mph 83% 0.00 in
08:24 38.2 °F 33.5 °F 30.25 in NW 1.0 mph 3.0 mph 83% 0.00 in
08:29 38.5 °F 33.5 °F 30.25 in NW 1.0 mph 3.0 mph 82% 0.00 in
08:34 38.9 °F 33.3 °F 30.25 in Calm   1.0 mph 80% 0.00 in
08:39 39.1 °F 33.1 °F 30.25 in NNW 2.0 mph 6.0 mph 79% 0.00 in
08:44 39.3 °F 33.0 °F 30.26 in NNW 1.0 mph 6.0 mph 78% 0.00 in
08:49 39.5 °F 32.9 °F 30.26 in NNW 3.0 mph 5.0 mph 77% 0.00 in
08:54 39.5 °F 32.6 °F 30.26 in NNW 1.0 mph 5.0 mph 76% 0.00 in
08:59 39.5 °F 32.6 °F 30.27 in NW 2.0 mph 6.0 mph 76% 0.00 in
09:04 39.6 °F 32.7 °F 30.27 in WNW 2.0 mph 6.0 mph 76% 0.00 in
09:09 39.9 °F 32.9 °F 30.26 in WNW 1.0 mph 4.0 mph 76% 0.00 in
09:14 39.9 °F 32.6 °F 30.26 in NW 2.0 mph 6.0 mph 75% 0.00 in
09:19 39.7 °F 32.1 °F 30.26 in NW 3.0 mph 6.0 mph 74% 0.00 in
09:24 39.6 °F 32.0 °F 30.26 in NNW 1.0 mph 6.0 mph 74% 0.00 in
09:29 39.6 °F 32.0 °F 30.26 in NNW 3.0 mph 7.0 mph 74% 0.00 in
09:34 39.7 °F 32.1 °F 30.25 in NW 4.0 mph 4.0 mph 74% 0.00 in
09:39 40.1 °F 32.5 °F 30.26 in NW 1.0 mph 4.0 mph 74% 0.00 in
09:44 40.2 °F 32.2 °F 30.26 in NNW 1.0 mph 4.0 mph 73% 0.00 in
09:49 40.3 °F 32.0 °F 30.26 in NNW 1.0 mph 4.0 mph 72% 0.00 in
09:54 40.6 °F 32.6 °F 30.26 in North 5.0 mph 5.0 mph 73% 0.00 in
09:59 40.4 °F 32.1 °F 30.26 in North 3.0 mph 5.0 mph 72% 0.00 in
10:04 40.6 °F 32.6 °F 30.26 in North 3.0 mph 5.0 mph 73% 0.00 in
10:09 40.7 °F 32.4 °F 30.26 in NNW 2.0 mph 5.0 mph 72% 0.00 in
10:14 40.6 °F 31.9 °F 30.26 in NNW 2.0 mph 6.0 mph 71% 0.00 in
10:19 40.7 °F 32.4 °F 30.25 in North 1.0 mph 4.0 mph 72% 0.00 in
10:24 40.8 °F 32.1 °F 30.25 in North 2.0 mph 5.0 mph 71% 0.00 in
10:29 40.7 °F 32.0 °F 30.25 in NNW 4.0 mph 5.0 mph 71% 0.00 in
10:34 40.6 °F 31.9 °F 30.25 in NNW 2.0 mph 5.0 mph 71% 0.00 in
10:39 40.8 °F 32.8 °F 30.25 in NNW 2.0 mph 8.0 mph 73% 0.00 in
10:44 40.9 °F 32.6 °F 30.25 in NNW 2.0 mph 4.0 mph 72% 0.00 in
10:49 41.2 °F 33.2 °F 30.25 in NNE 2.0 mph 4.0 mph 73% 0.00 in
10:54 41.1 °F 32.8 °F 30.25 in NNE 3.0 mph 6.0 mph 72% 0.00 in
10:59 41.0 °F 32.7 °F 30.25 in NNW 2.0 mph 4.0 mph 72% 0.00 in
11:04 41.0 °F 32.7 °F 30.25 in NNE 3.0 mph 6.0 mph 72% 0.00 in
11:09 41.0 °F 32.7 °F 30.25 in NE 3.0 mph 6.0 mph 72% 0.00 in
11:14 40.9 °F 32.9 °F 30.24 in NE 2.0 mph 5.0 mph 73% 0.00 in
11:19 41.0 °F 32.7 °F 30.24 in NE 2.0 mph 5.0 mph 72% 0.00 in
11:24 40.9 °F 32.9 °F 30.24 in NNE 8.0 mph 12.0 mph 73% 0.00 in
11:29 39.8 °F 32.5 °F 30.24 in NNE 7.0 mph 10.0 mph 75% 0.00 in
11:34 39.0 °F 32.1 °F 30.24 in NNE 5.0 mph 10.0 mph 76% 0.00 in
11:39 39.0 °F 32.4 °F 30.24 in NNE 4.0 mph 8.0 mph 77% 0.00 in
11:44 38.9 °F 32.3 °F 30.24 in NNE 4.0 mph 7.0 mph 77% 0.00 in
11:49 38.9 °F 32.3 °F 30.25 in North 4.0 mph 6.0 mph 77% 0.00 in
11:54 38.8 °F 32.5 °F 30.25 in NNW 2.0 mph 6.0 mph 78% 0.00 in
11:59 38.8 °F 32.2 °F 30.24 in NNW 2.0 mph 6.0 mph 77% 0.00 in
12:04 38.6 °F 32.0 °F 30.24 in North 3.0 mph 7.0 mph 77% 0.00 in
12:09 38.5 °F 31.9 °F 30.23 in NE 2.0 mph 9.0 mph 77% 0.00 in
12:14 38.6 °F 32.3 °F 30.23 in NNE 4.0 mph 5.0 mph 78% 0.00 in
12:19 38.7 °F 32.4 °F 30.23 in NE 6.0 mph 6.0 mph 78% 0.00 in
12:24 38.6 °F 32.3 °F 30.23 in NNE 3.0 mph 6.0 mph 78% 0.00 in
12:29 38.5 °F 32.2 °F 30.23 in NNW 5.0 mph 7.0 mph 78% 0.00 in
12:34 38.5 °F 32.2 °F 30.23 in NNE 4.0 mph 7.0 mph 78% 0.00 in
12:39 38.4 °F 31.8 °F 30.23 in NNE 4.0 mph 7.0 mph 77% 0.00 in
12:44 38.2 °F 31.6 °F 30.23 in NNE 4.0 mph 7.0 mph 77% 0.00 in
12:49 38.1 °F 31.5 °F 30.22 in NNE 3.0 mph 6.0 mph 77% 0.00 in
12:54 38.1 °F 31.5 °F 30.22 in NNE 4.0 mph 6.0 mph 77% 0.00 in
12:59 37.9 °F 31.3 °F 30.22 in NE 4.0 mph 9.0 mph 77% 0.00 in
13:04 37.7 °F 31.1 °F 30.22 in NNE 4.0 mph 8.0 mph 77% 0.00 in
13:09 37.5 °F 31.3 °F 30.22 in NNE 4.0 mph 7.0 mph 78% 0.00 in
13:14 37.6 °F 31.0 °F 30.21 in NNE 4.0 mph 6.0 mph 77% 0.00 in
13:19 37.4 °F 30.5 °F 30.21 in NNE 3.0 mph 8.0 mph 76% 0.00 in
13:24 37.3 °F 30.4 °F 30.21 in NE 5.0 mph 9.0 mph 76% 0.00 in
13:29 37.7 °F 31.1 °F 30.21 in NNE 4.0 mph 9.0 mph 77% 0.00 in
13:34 37.7 °F 30.8 °F 30.21 in NNE 4.0 mph 10.0 mph 76% 0.00 in
13:39 37.6 °F 30.7 °F 30.21 in NE 4.0 mph 10.0 mph 76% 0.00 in
13:44 37.3 °F 30.1 °F 30.21 in NE 5.0 mph 10.0 mph 75% 0.00 in
13:49 37.4 °F 30.2 °F 30.21 in North 2.0 mph 8.0 mph 75% 0.00 in
13:54 37.5 °F 30.6 °F 30.22 in North 1.0 mph 7.0 mph 76% 0.00 in
13:59 37.7 °F 30.8 °F 30.22 in NNE 4.0 mph 7.0 mph 76% 0.00 in
14:04 38.0 °F 31.1 °F 30.21 in NNE 3.0 mph 7.0 mph 76% 0.00 in
14:09 38.0 °F 30.8 °F 30.21 in NNE 3.0 mph 7.0 mph 75% 0.00 in
14:14 38.1 °F 30.9 °F 30.21 in NNE 3.0 mph 6.0 mph 75% 0.00 in
14:19 38.0 °F 30.8 °F 30.21 in NE 5.0 mph 8.0 mph 75% 0.00 in
14:24 37.7 °F 30.5 °F 30.21 in NE 5.0 mph 8.0 mph 75% 0.00 in
14:29 37.7 °F 30.5 °F 30.20 in NE 4.0 mph 9.0 mph 75% 0.00 in
14:34 37.6 °F 30.4 °F 30.21 in NNE 4.0 mph 9.0 mph 75% 0.00 in
14:39 37.6 °F 30.1 °F 30.21 in NNE 3.0 mph 8.0 mph 74% 0.00 in
14:44 37.7 °F 30.5 °F 30.21 in ENE 7.0 mph 7.0 mph 75% 0.00 in
14:49 38.0 °F 30.4 °F 30.21 in NE 2.0 mph 7.0 mph 74% 0.00 in
14:54 38.0 °F 30.8 °F 30.20 in NE 3.0 mph 9.0 mph 75% 0.00 in
14:59 38.0 °F 30.4 °F 30.20 in NE 4.0 mph 10.0 mph 74% 0.00 in
15:04 38.0 °F 30.8 °F 30.20 in NE 4.0 mph 10.0 mph 75% 0.00 in
15:09 38.0 °F 30.4 °F 30.20 in NE 4.0 mph 9.0 mph 74% 0.00 in
15:14 38.1 °F 30.5 °F 30.19 in NE 5.0 mph 9.0 mph 74% 0.00 in
15:19 38.1 °F 30.5 °F 30.19 in NE 5.0 mph 11.0 mph 74% 0.00 in
15:24 38.2 °F 30.6 °F 30.20 in NE 5.0 mph 11.0 mph 74% 0.00 in
15:29 38.1 °F 30.2 °F 30.19 in NNE 5.0 mph 10.0 mph 73% 0.00 in
15:39 38.0 °F 30.1 °F 30.20 in NE 7.0 mph 8.0 mph 73% 0.00 in
15:44 38.1 °F 30.5 °F 30.19 in ENE 2.0 mph 9.0 mph 74% 0.00 in
15:49 38.2 °F 30.6 °F 30.19 in ENE 5.0 mph 10.0 mph 74% 0.00 in
15:54 38.1 °F 30.2 °F 30.19 in NE 6.0 mph 12.0 mph 73% 0.00 in
15:59 38.0 °F 30.1 °F 30.18 in NE 6.0 mph 12.0 mph 73% 0.00 in
16:04 38.2 °F 30.6 °F 30.19 in ENE 7.0 mph 10.0 mph 74% 0.00 in
16:09 38.2 °F 30.3 °F 30.18 in NE 5.0 mph 10.0 mph 73% 0.00 in
16:19 38.6 °F 30.7 °F 30.18 in NE 5.0 mph 10.0 mph 73% 0.00 in
16:24 38.7 °F 30.8 °F 30.18 in NE 2.0 mph 9.0 mph 73% 0.00 in
16:29 39.2 °F 31.3 °F 30.17 in ENE 4.0 mph 9.0 mph 73% 0.00 in
16:34 39.1 °F 30.8 °F 30.17 in NE 10.0 mph 11.0 mph 72% 0.00 in
16:39 38.7 °F 30.8 °F 30.16 in ENE 5.0 mph 11.0 mph 73% 0.00 in
16:44 38.4 °F 30.5 °F 30.16 in NE 7.0 mph 10.0 mph 73% 0.00 in
16:49 38.2 °F 30.6 °F 30.16 in SE 3.0 mph 12.0 mph 74% 0.00 in
16:54 38.1 °F 30.5 °F 30.17 in NE 7.0 mph 11.0 mph 74% 0.00 in
16:59 38.1 °F 30.5 °F 30.17 in East 5.0 mph 11.0 mph 74% 0.00 in
17:04 38.1 °F 30.5 °F 30.16 in ENE 5.0 mph 11.0 mph 74% 0.00 in
17:09 38.0 °F 30.4 °F 30.17 in NE 5.0 mph 11.0 mph 74% 0.00 in
17:14 37.9 °F 30.4 °F 30.17 in NE 6.0 mph 11.0 mph 74% 0.00 in
Buffalo, New York, USA
Compliments of Weather Underground - 2 mb